Watertown, Ohio
Current Conditions -  °F | °C
As of 1:53 AM on Sunday 26 Oct 2014 (Local Time) from KPKB Reporting Station
Scattered Clouds Scattered Clouds  
Wind Chill: 12°   Ceiling: Unl
Heat Index: 12°   Visibility: 7mi
Dew Point: 11°   Wind: 3mph
Humidity: 90%   Direction: 250°WSW
Pressure: 29.89"   Gusts: NA
Location:  39.47°N, 81.63°W
Report Text: KPKB 260553Z AUTO 25003KT 7SM SCT055 12/11 A2989 RMK AO2 SLP119 T01220106 10167 20122 50000
Loading
Personal Weather Stations






























Interactive Weather Map
Tropical Storm Tracking
New forecast layout! Learn more

10-Day Weather Forecast

Advertisements
Track Severe Weather on mobile